Map

Track Data

SID SEASON NUMBER BASIN SUBBASIN NAME ISO_TIME NATURE LAT LON WMO_WIND WMO_PRES WMO_AGENCY TRACK_TYPE DIST2LAND LANDFALL IFLAG USA_AGENCY USA_ATCF_ID USA_LAT USA_LON USA_RECORD USA_STATUS USA_WIND USA_PRES USA_SSHS USA_R34_NE USA_R34_SE USA_R34_SW USA_R34_NW USA_R50_NE USA_R50_SE USA_R50_SW USA_R50_NW USA_R64_NE USA_R64_SE USA_R64_SW USA_R64_NW USA_POCI USA_ROCI USA_RMW USA_EYE TOKYO_LAT TOKYO_LON TOKYO_GRADE TOKYO_WIND TOKYO_PRES TOKYO_R50_DIR TOKYO_R50_LONG TOKYO_R50_SHORT TOKYO_R30_DIR TOKYO_R30_LONG TOKYO_R30_SHORT TOKYO_LAND CMA_LAT CMA_LON CMA_CAT CMA_WIND CMA_PRES HKO_LAT HKO_LON HKO_CAT HKO_WIND HKO_PRES NEWDELHI_LAT NEWDELHI_LON NEWDELHI_GRADE NEWDELHI_WIND NEWDELHI_PRES NEWDELHI_CI NEWDELHI_DP NEWDELHI_POCI REUNION_LAT REUNION_LON REUNION_TYPE REUNION_WIND REUNION_PRES REUNION_TNUM REUNION_CI REUNION_RMW REUNION_R34_NE REUNION_R34_SE REUNION_R34_SW REUNION_R34_NW REUNION_R50_NE REUNION_R50_SE REUNION_R50_SW REUNION_R50_NW REUNION_R64_NE REUNION_R64_SE REUNION_R64_SW REUNION_R64_NW BOM_LAT BOM_LON BOM_TYPE BOM_WIND BOM_PRES BOM_TNUM BOM_CI BOM_RMW BOM_R34_NE BOM_R34_SE BOM_R34_SW BOM_R34_NW BOM_R50_NE BOM_R50_SE BOM_R50_SW BOM_R50_NW BOM_R64_NE BOM_R64_SE BOM_R64_SW BOM_R64_NW BOM_ROCI BOM_POCI BOM_EYE BOM_POS_METHOD BOM_PRES_METHOD NADI_LAT NADI_LON NADI_CAT NADI_WIND NADI_PRES WELLINGTON_LAT WELLINGTON_LON WELLINGTON_WIND WELLINGTON_PRES DS824_LAT DS824_LON DS824_STAGE DS824_WIND DS824_PRES TD9636_LAT TD9636_LON TD9636_STAGE TD9636_WIND TD9636_PRES TD9635_LAT TD9635_LON TD9635_WIND TD9635_PRES TD9635_ROCI NEUMANN_LAT NEUMANN_LON NEUMANN_CLASS NEUMANN_WIND NEUMANN_PRES MLC_LAT MLC_LON MLC_CLASS MLC_WIND MLC_PRES USA_GUST BOM_GUST BOM_GUST_PER REUNION_GUST REUNION_GUST_PER USA_SEAHGT USA_SEARAD_NE USA_SEARAD_SE USA_SEARAD_SW USA_SEARAD_NW STORM_SPEED STORM_DIR
1974277N21285 1974 112 NA NA NOT_NAMED 1974-10-04 00:00:00 TS 21.0000 -75.2000 30 1009 hurdat_atl main 41 41 O_____________ hurdat_atl AL181974 21.0000 -75.2000 TD 30 1009 -1 2 343
1974277N21285 1974 112 NA NA NOT_NAMED 1974-10-04 03:00:00 TS 21.1000 -75.2500 main 42 33 P_____________ AL181974 21.1000 -75.2500 TD 30 -1 2 333
1974277N21285 1974 112 NA NA NOT_NAMED 1974-10-04 06:00:00 TS 21.2000 -75.3000 30 hurdat_atl main 38 38 O_____________ hurdat_atl AL181974 21.2000 -75.3000 TD 30 -1 2 333
1974277N21285 1974 112 NA NA NOT_NAMED 1974-10-04 09:00:00 TS 21.3000 -75.3500 main 39 39 P_____________ AL181974 21.3000 -75.3500 TD 30 -1 2 333
1974277N21285 1974 112 NA NA NOT_NAMED 1974-10-04 12:00:00 TS 21.4000 -75.4000 30 hurdat_atl main 49 49 O_____________ hurdat_atl AL181974 21.4000 -75.4000 TD 30 -1 2 333
1974277N21285 1974 112 NA NA NOT_NAMED 1974-10-04 15:00:00 TS 21.5000 -75.4500 main 59 56 P_____________ AL181974 21.5000 -75.4500 TD 30 -1 2 333
1974277N21285 1974 112 NA NA NOT_NAMED 1974-10-04 18:00:00 TS 21.6000 -75.5000 30 hurdat_atl main 67 67 O_____________ hurdat_atl AL181974 21.6000 -75.5000 TD 30 -1 2 335
1974277N21285 1974 112 NA NA NOT_NAMED 1974-10-04 21:00:00 TS 21.7000 -75.5425 main 78 78 P_____________ AL181974 21.7000 -75.5425 TD 30 -1 2 333
1974277N21285 1974 112 NA NA NOT_NAMED 1974-10-05 00:00:00 TS 21.8000 -75.6000 30 1008 hurdat_atl main 88 88 O_____________ hurdat_atl AL181974 21.8000 -75.6000 TD 30 1008 -1 2 324
1974277N21285 1974 112 NA NA NOT_NAMED 1974-10-05 03:00:00 TS 21.8850 -75.6851 main 93 88 P_____________ AL181974 21.8850 -75.6851 TD 30 -1 3 317
1974277N21285 1974 112 NA NA NOT_NAMED 1974-10-05 06:00:00 TS 22.0000 -75.8000 30 hurdat_atl main 98 98 O_____________ hurdat_atl AL181974 22.0000 -75.8000 TD 30 -1 4 320
1974277N21285 1974 112 NA NA NOT_NAMED 1974-10-05 09:00:00 TS 22.1625 -75.9351 main 116 113 P_____________ AL181974 22.1625 -75.9351 TD 30 -1 5 325
1974277N21285 1974 112 NA NA NOT_NAMED 1974-10-05 12:00:00 SS 22.4000 -76.1000 30 hurdat_atl main 129 128 O_____________ hurdat_atl AL181974 22.4000 -76.1000 SD 30 -2 7 330
1974277N21285 1974 112 NA NA NOT_NAMED 1974-10-05 15:00:00 SS 22.7275 -76.2850 main 138 138 P_____________ AL181974 22.7275 -76.2850 SD 30 -2 8 332
1974277N21285 1974 112 NA NA NOT_NAMED 1974-10-05 18:00:00 SS 23.1000 -76.5000 30 hurdat_atl main 168 158 O_____________ hurdat_atl AL181974 23.1000 -76.5000 SD 30 -2 8 331
1974277N21285 1974 112 NA NA NOT_NAMED 1974-10-05 21:00:00 SS 23.4574 -76.7202 main 150 105 P_____________ AL181974 23.4574 -76.7202 SD 35 -2 8 327
1974277N21285 1974 112 NA NA NOT_NAMED 1974-10-06 00:00:00 SS 23.8000 -77.0000 40 hurdat_atl main 105 60 O_____________ hurdat_atl AL181974 23.8000 -77.0000 SS 40 -2 9 318
1974277N21285 1974 112 NA NA NOT_NAMED 1974-10-06 03:00:00 SS 24.1075 -77.3701 main 54 10 P_____________ AL181974 24.1075 -77.3701 SS 40 -2 9 309
1974277N21285 1974 112 NA NA NOT_NAMED 1974-10-06 06:00:00 SS 24.4000 -77.8000 40 hurdat_atl main 10 0 O_____________ hurdat_atl AL181974 24.4000 -77.8000 SS 40 -2 10 305
1974277N21285 1974 112 NA NA NOT_NAMED 1974-10-06 09:00:00 SS 24.6851 -78.2651 main 0 0 P_____________ AL181974 24.6851 -78.2651 SS 40 -2 10 306
1974277N21285 1974 112 NA NA NOT_NAMED 1974-10-06 12:00:00 SS 25.0000 -78.7000 40 1006 hurdat_atl main 46 46 O_____________ hurdat_atl AL181974 25.0000 -78.7000 SS 40 1006 -2 10 315
1974277N21285 1974 112 NA NA NOT_NAMED 1974-10-06 15:00:00 SS 25.3698 -79.0303 main 96 80 P_____________ AL181974 25.3698 -79.0303 SS 40 -2 10 326
1974277N21285 1974 112 NA NA NOT_NAMED 1974-10-06 18:00:00 SS 25.8000 -79.3000 40 hurdat_atl main 80 49 O_____________ hurdat_atl AL181974 25.8000 -79.3000 SS 40 -2 10 331
1974277N21285 1974 112 NA NA NOT_NAMED 1974-10-06 21:00:00 SS 26.2700 -79.5800 main 49 19 P_____________ AL181974 26.2700 -79.5800 SS 42 -2 11 336
1974277N21285 1974 112 NA NA NOT_NAMED 1974-10-07 00:00:00 SS 26.8000 -79.8000 45 hurdat_atl main 19 19 O_____________ hurdat_atl AL181974 26.8000 -79.8000 SS 45 -2 12 343
1974277N21285 1974 112 NA NA NOT_NAMED 1974-10-07 03:00:00 SS 27.3774 -79.9597 main 29 29 P_____________ AL181974 27.3774 -79.9597 SS 42 -2 12 352
1974277N21285 1974 112 NA NA NOT_NAMED 1974-10-07 06:00:00 SS 28.0000 -80.0000 40 hurdat_atl main 50 48 O_____________ hurdat_atl AL181974 28.0000 -80.0000 SS 40 -2 13 0
1974277N21285 1974 112 NA NA NOT_NAMED 1974-10-07 09:00:00 SS 28.6348 -79.9320 main 59 59 P_____________ AL181974 28.6348 -79.9320 SS 40 -2 13 11
1974277N21285 1974 112 NA NA NOT_NAMED 1974-10-07 12:00:00 SS 29.3000 -79.7000 40 hurdat_atl main 115 115 O_____________ hurdat_atl AL181974 29.3000 -79.7000 SS 40 -2 15 20
1974277N21285 1974 112 NA NA NOT_NAMED 1974-10-07 15:00:00 SS 29.9993 -79.3615 main 176 176 P_____________ AL181974 29.9993 -79.3615 SS 40 -2 16 29
1974277N21285 1974 112 NA NA NOT_NAMED 1974-10-07 18:00:00 SS 30.7000 -78.8000 40 hurdat_atl main 239 220 O_____________ hurdat_atl AL181974 30.7000 -78.8000 SS 40 -2 18 40
1974277N21285 1974 112 NA NA NOT_NAMED 1974-10-07 21:00:00 SS 31.3718 -78.0193 main 221 216 P_____________ AL181974 31.3718 -78.0193 SS 37 -2 20 50
1974277N21285 1974 112 NA NA NOT_NAMED 1974-10-08 00:00:00 SS 32.0000 -77.0000 35 1008 hurdat_atl main 231 224 O_____________ hurdat_atl AL181974 32.0000 -77.0000 SS 35 1008 -2 22 57
1974277N21285 1974 112 NA NA NOT_NAMED 1974-10-08 03:00:00 SS 32.5632 -75.8601 main 240 234 P_____________ AL181974 32.5632 -75.8601 SS 35 -2 24 62
1974277N21285 1974 112 NA NA NOT_NAMED 1974-10-08 06:00:00 SS 33.1000 -74.5000 35 hurdat_atl main 256 256 O_____________ hurdat_atl AL181974 33.1000 -74.5000 SS 35 -2 27 66
1974277N21285 1974 112 NA NA NOT_NAMED 1974-10-08 09:00:00 SS 33.6335 -72.9445 main 339 331 P_____________ AL181974 33.6335 -72.9445 SS 32 -2 30 68
1974277N21285 1974 112 NA NA NOT_NAMED 1974-10-08 12:00:00 ET 34.2000 -71.2000 30 hurdat_atl main 429 429 O_____________ hurdat_atl AL181974 34.2000 -71.2000 EX 30 -4 32 68
1974277N21285 1974 112 NA NA NOT_NAMED 1974-10-08 15:00:00 ET 34.8167 -69.3786 main 563 563 P_____________ AL181974 34.8167 -69.3786 EX 30 -4 34 67
1974277N21285 1974 112 NA NA NOT_NAMED 1974-10-08 18:00:00 ET 35.5000 -67.4000 30 hurdat_atl main 726 719 O_____________ hurdat_atl AL181974 35.5000 -67.4000 EX 30 -4 36 67
1974277N21285 1974 112 NA NA NOT_NAMED 1974-10-08 21:00:00 ET 36.2440 -65.2576 main 733 733 P_____________ AL181974 36.2440 -65.2576 EX 27 -4 38 67
1974277N21285 1974 112 NA NA NOT_NAMED 1974-10-09 00:00:00 ET 37.0000 -63.0000 25 hurdat_atl main 748 O_____________ hurdat_atl AL181974 37.0000 -63.0000 EX 25 -4 39 67

About IBTrACS Database

This database is a web-friendly format of International Best Track Archive for Climate Stewardship (IBTrACS), a global best track data archive curated by NOAA dating back to 1842.

Updated: 2021-11-26